createdAt,value
2018-08-10T00:00:17.847Z,2.10
2018-08-10T00:02:47.174Z,2.30
2018-08-10T00:05:16.491Z,2.00
2018-08-10T00:07:45.846Z,2.30
2018-08-10T00:10:15.244Z,2.13
2018-08-10T00:12:44.574Z,2.10
2018-08-10T00:15:13.901Z,1.77
2018-08-10T00:17:43.215Z,1.87
2018-08-10T00:20:14.458Z,2.20
2018-08-10T00:22:44.443Z,1.93
2018-08-10T00:25:15.319Z,2.47
2018-08-10T00:27:44.639Z,2.10
2018-08-10T00:30:16.462Z,2.07
2018-08-10T00:32:50.550Z,1.83
2018-08-10T00:35:19.898Z,1.90
2018-08-10T00:37:49.683Z,1.90
2018-08-10T00:40:21.986Z,2.10
2018-08-10T00:42:51.766Z,1.70
2018-08-10T00:45:21.315Z,1.80
2018-08-10T00:47:50.663Z,1.90
2018-08-10T00:50:19.996Z,1.90
2018-08-10T00:52:49.563Z,2.30
2018-08-10T00:55:19.806Z,2.00
2018-08-10T00:57:49.581Z,2.03
2018-08-10T01:00:20.302Z,2.23
2018-08-10T01:02:50.031Z,2.10
2018-08-10T01:05:19.482Z,2.33
2018-08-10T01:07:48.809Z,2.30
2018-08-10T01:10:19.484Z,2.03
2018-08-10T01:12:48.831Z,2.33
2018-08-10T01:15:18.614Z,2.03
2018-08-10T01:17:48.034Z,2.20
2018-08-10T01:20:21.857Z,1.90
2018-08-10T01:22:56.512Z,2.33
2018-08-10T01:25:26.952Z,1.97
2018-08-10T01:27:57.655Z,1.90
2018-08-10T01:30:28.150Z,1.70
2018-08-10T01:32:57.650Z,2.20
2018-08-10T01:35:27.727Z,2.00
2018-08-10T01:37:58.211Z,2.40
2018-08-10T01:40:27.607Z,2.00
2018-08-10T01:42:56.934Z,1.90
2018-08-10T01:45:26.374Z,1.93
2018-08-10T01:47:55.806Z,1.83
2018-08-10T01:50:25.163Z,1.70
2018-08-10T01:52:54.513Z,2.63
2018-08-10T01:55:23.823Z,2.00
2018-08-10T01:57:53.246Z,1.80
2018-08-10T02:00:22.607Z,1.90
2018-08-10T02:02:51.979Z,1.70
2018-08-10T02:05:21.331Z,2.00
2018-08-10T02:07:50.745Z,1.63
2018-08-10T02:10:20.338Z,1.60
2018-08-10T02:12:54.790Z,1.80
2018-08-10T02:15:25.657Z,1.67
2018-08-10T02:17:55.039Z,1.80
2018-08-10T02:20:25.287Z,1.83
2018-08-10T02:24:19.058Z,1.90
2018-08-10T02:26:48.408Z,1.47
2018-08-10T02:29:17.787Z,1.30
2018-08-10T02:31:47.368Z,1.50
2018-08-10T02:34:17.215Z,1.60
2018-08-10T02:36:47.098Z,1.70
2018-08-10T02:39:17.382Z,1.33
2018-08-10T02:41:46.896Z,1.50
2018-08-10T02:44:16.687Z,1.67
2018-08-10T02:46:46.328Z,1.30
2018-08-10T02:49:16.467Z,1.40
2018-08-10T02:51:45.794Z,1.30
2018-08-10T02:54:15.116Z,1.40
2018-08-10T02:56:44.435Z,1.40
2018-08-10T02:59:13.762Z,1.33
2018-08-10T03:01:43.067Z,1.50
2018-08-10T03:04:12.403Z,1.20
2018-08-10T03:06:41.713Z,1.30
2018-08-10T03:09:11.923Z,1.30
2018-08-10T03:11:41.240Z,1.30
2018-08-10T03:14:10.556Z,1.40
2018-08-10T03:16:39.877Z,1.30
2018-08-10T03:19:09.232Z,1.20
2018-08-10T03:21:38.533Z,1.50
2018-08-10T03:24:08.088Z,1.20
2018-08-10T03:26:37.391Z,1.30
2018-08-10T03:29:06.675Z,1.10
2018-08-10T03:31:36.029Z,1.20
2018-08-10T03:34:05.384Z,1.20
2018-08-10T03:36:35.076Z,1.20
2018-08-10T03:39:06.238Z,1.30
2018-08-10T03:41:35.650Z,1.20
2018-08-10T03:44:04.994Z,1.00
2018-08-10T03:46:34.311Z,1.20
2018-08-10T03:49:03.690Z,1.20
2018-08-10T03:51:33.036Z,1.30
2018-08-10T03:54:02.350Z,1.20
2018-08-10T03:56:31.702Z,1.20
2018-08-10T03:59:01.003Z,1.30
2018-08-10T04:01:30.359Z,1.13
2018-08-10T04:03:59.686Z,1.30
2018-08-10T04:06:29.204Z,1.10
2018-08-10T04:08:58.546Z,1.20
2018-08-10T04:11:27.893Z,1.13
2018-08-10T04:13:57.200Z,1.33
2018-08-10T04:16:26.523Z,1.50
2018-08-10T04:18:55.839Z,1.30
2018-08-10T04:21:25.210Z,1.20
2018-08-10T04:23:54.535Z,1.20
2018-08-10T04:26:23.966Z,1.47
2018-08-10T04:28:53.267Z,1.20
2018-08-10T04:31:22.627Z,1.30
2018-08-10T04:33:52.410Z,1.47
2018-08-10T04:36:21.772Z,1.23
2018-08-10T04:38:51.348Z,1.20
2018-08-10T04:41:20.742Z,1.30
2018-08-10T04:43:50.287Z,1.50
2018-08-10T04:46:26.243Z,1.40
2018-08-10T04:48:55.543Z,1.40
2018-08-10T04:51:24.908Z,1.17
2018-08-10T04:53:54.188Z,1.40
2018-08-10T04:56:23.470Z,1.40
2018-08-10T04:58:52.786Z,1.13
2018-08-10T05:01:22.097Z,1.20
2018-08-10T05:03:51.491Z,1.10
2018-08-10T05:06:20.927Z,1.10
2018-08-10T05:08:50.242Z,1.10
2018-08-10T05:11:19.607Z,1.10
2018-08-10T05:13:48.979Z,1.10
2018-08-10T05:16:18.302Z,1.10
2018-08-10T05:18:47.611Z,1.07
2018-08-10T05:21:16.921Z,1.00
2018-08-10T05:23:46.228Z,1.00
2018-08-10T05:26:15.525Z,1.00
2018-08-10T05:28:44.834Z,1.17
2018-08-10T05:31:14.191Z,0.97
2018-08-10T05:33:43.541Z,1.03
2018-08-10T05:36:12.818Z,1.00
2018-08-10T05:38:42.125Z,1.00
2018-08-10T05:41:11.629Z,0.90
2018-08-10T05:43:41.350Z,1.00
2018-08-10T05:46:10.626Z,1.03
2018-08-10T05:48:41.019Z,1.00
2018-08-10T05:51:12.817Z,0.90
2018-08-10T05:53:42.452Z,0.90
2018-08-10T05:56:12.353Z,1.00
2018-08-10T05:58:41.747Z,0.90
2018-08-10T06:01:11.087Z,1.00
2018-08-10T06:03:40.395Z,1.00
2018-08-10T06:06:09.725Z,1.00
2018-08-10T06:08:39.005Z,0.83
2018-08-10T06:11:08.340Z,1.00
2018-08-10T06:13:37.661Z,1.10
2018-08-10T06:16:06.975Z,1.00
2018-08-10T06:18:36.261Z,1.00
2018-08-10T06:21:05.638Z,0.90
2018-08-10T06:23:35.760Z,1.00
2018-08-10T06:26:05.084Z,0.90
2018-08-10T06:28:34.371Z,0.90
2018-08-10T06:31:03.706Z,0.90
2018-08-10T06:33:33.047Z,0.90
2018-08-10T06:36:02.373Z,0.80
2018-08-10T06:38:31.658Z,0.93
2018-08-10T06:41:00.976Z,1.00
2018-08-10T06:43:31.134Z,0.90
2018-08-10T06:46:00.517Z,1.20
2018-08-10T06:48:29.876Z,1.17
2018-08-10T06:50:59.217Z,1.00
2018-08-10T06:53:28.565Z,0.90
2018-08-10T06:55:58.064Z,0.90
2018-08-10T06:58:27.275Z,1.00
2018-08-10T07:00:56.728Z,1.00
2018-08-10T07:03:26.089Z,1.00
2018-08-10T07:05:55.539Z,0.90
2018-08-10T07:08:25.328Z,0.90
2018-08-10T07:10:55.122Z,1.00
2018-08-10T07:13:24.516Z,0.80
2018-08-10T07:15:53.826Z,1.13
2018-08-10T07:18:23.703Z,0.87
2018-08-10T07:20:53.056Z,0.90
2018-08-10T07:23:22.430Z,0.80
2018-08-10T07:25:51.915Z,1.00
2018-08-10T07:28:21.286Z,0.90
2018-08-10T07:30:51.012Z,0.90
2018-08-10T07:33:20.410Z,0.90
2018-08-10T07:35:49.742Z,1.00
2018-08-10T07:38:19.182Z,0.90
2018-08-10T07:40:48.550Z,0.97
2018-08-10T07:43:17.879Z,0.80
2018-08-10T07:45:47.225Z,0.80
2018-08-10T07:48:16.642Z,1.00
2018-08-10T07:50:45.926Z,1.00
2018-08-10T07:53:15.317Z,1.00
2018-08-10T07:55:44.603Z,1.10
2018-08-10T07:58:13.940Z,0.97
2018-08-10T08:00:43.349Z,1.00
2018-08-10T08:03:12.694Z,1.20
2018-08-10T08:05:41.982Z,1.00
2018-08-10T08:08:11.289Z,1.13
2018-08-10T08:10:40.627Z,1.00
2018-08-10T08:13:09.937Z,1.10
2018-08-10T08:15:39.228Z,1.10
2018-08-10T08:18:08.588Z,1.10
2018-08-10T08:20:44.487Z,1.10
2018-08-10T08:23:13.839Z,0.90
2018-08-10T08:25:43.223Z,1.00
2018-08-10T08:28:12.531Z,1.00
2018-08-10T08:30:41.886Z,1.10
2018-08-10T08:33:11.175Z,0.80
2018-08-10T08:35:40.568Z,1.60
2018-08-10T08:39:20.506Z,1.10
2018-08-10T08:41:50.267Z,1.03
2018-08-10T08:44:33.759Z,1.10
2018-08-10T08:47:04.606Z,1.00
2018-08-10T08:49:34.722Z,1.03
2018-08-10T08:52:04.432Z,1.00
2018-08-10T08:56:09.572Z,1.00
2018-08-10T08:58:39.343Z,0.97
2018-08-10T09:01:09.274Z,0.90
2018-08-10T09:05:08.827Z,1.00
2018-08-10T09:07:38.466Z,0.90
2018-08-10T09:10:12.836Z,1.10
2018-08-10T09:12:42.274Z,1.10
2018-08-10T09:15:14.259Z,1.10
2018-08-10T09:17:43.680Z,0.90
2018-08-10T09:20:13.027Z,0.83
2018-08-10T09:22:42.410Z,0.80
2018-08-10T09:25:15.530Z,1.00
2018-08-10T09:27:44.869Z,1.10
2018-08-10T09:30:17.367Z,1.00
2018-08-10T09:32:46.712Z,1.00
2018-08-10T09:35:16.203Z,1.00
2018-08-10T09:37:45.560Z,1.10
2018-08-10T09:40:17.754Z,1.07
2018-08-10T09:42:47.279Z,0.90
2018-08-10T09:45:17.802Z,1.10
2018-08-10T09:47:48.751Z,0.90
2018-08-10T09:50:18.687Z,1.00
2018-08-10T09:52:57.434Z,1.00
2018-08-10T09:55:33.351Z,0.97
2018-08-10T09:58:09.651Z,1.00
2018-08-10T10:00:44.083Z,1.00
2018-08-10T10:03:16.804Z,1.20
2018-08-10T10:05:46.725Z,0.90
2018-08-10T10:08:16.451Z,1.10
2018-08-10T10:10:45.771Z,0.90
2018-08-10T10:13:15.108Z,0.93
2018-08-10T10:15:44.593Z,0.90
2018-08-10T10:18:14.998Z,0.90
2018-08-10T10:20:44.962Z,1.00
2018-08-10T10:23:14.348Z,1.00
2018-08-10T10:25:43.812Z,0.90
2018-08-10T10:28:13.602Z,1.00
2018-08-10T10:30:42.910Z,1.10
2018-08-10T10:33:12.247Z,0.90
2018-08-10T10:35:41.664Z,0.80
2018-08-10T10:38:10.971Z,0.80
2018-08-10T10:40:40.760Z,0.90
2018-08-10T10:43:10.035Z,0.90
2018-08-10T10:45:39.351Z,0.90
2018-08-10T10:48:08.652Z,0.90
2018-08-10T10:50:37.987Z,0.90
2018-08-10T10:53:07.289Z,1.20
2018-08-10T10:55:36.798Z,0.90
2018-08-10T10:58:06.067Z,0.80
2018-08-10T11:00:35.586Z,0.97
2018-08-10T11:03:05.159Z,0.90
2018-08-10T11:05:34.496Z,0.90
2018-08-10T11:08:03.779Z,0.90
2018-08-10T11:10:33.155Z,1.00
2018-08-10T11:13:02.510Z,0.80
2018-08-10T11:15:31.830Z,0.70
2018-08-10T11:18:01.123Z,1.10
2018-08-10T11:20:30.482Z,0.80
2018-08-10T11:22:59.776Z,1.00
2018-08-10T11:25:29.196Z,0.90
2018-08-10T11:27:58.474Z,0.90
2018-08-10T11:30:27.754Z,0.80
2018-08-10T11:32:57.103Z,0.90
2018-08-10T11:35:26.403Z,0.87
2018-08-10T11:37:55.760Z,0.80
2018-08-10T11:40:25.085Z,1.00
2018-08-10T11:42:54.419Z,0.80
2018-08-10T11:45:23.709Z,1.00
2018-08-10T11:47:53.068Z,0.90
2018-08-10T11:50:22.373Z,0.90
2018-08-10T11:52:51.814Z,0.90
2018-08-10T11:55:21.099Z,1.00
2018-08-10T11:57:50.454Z,0.87
2018-08-10T12:00:19.746Z,1.00
2018-08-10T12:02:49.103Z,0.80
2018-08-10T12:05:18.412Z,0.80
2018-08-10T12:07:48.142Z,1.00
2018-08-10T12:10:17.443Z,0.90
2018-08-10T12:12:46.770Z,0.90
2018-08-10T12:15:16.099Z,0.90
2018-08-10T12:17:45.425Z,0.83
2018-08-10T12:20:14.742Z,0.90
2018-08-10T12:22:44.122Z,0.80
2018-08-10T12:25:13.619Z,0.80
2018-08-10T12:27:43.327Z,0.73
2018-08-10T12:30:13.810Z,0.90
2018-08-10T12:32:43.123Z,0.90
2018-08-10T12:35:12.699Z,1.00
2018-08-10T12:37:41.992Z,1.17
2018-08-10T12:40:11.400Z,1.60
2018-08-10T12:42:41.173Z,0.90
2018-08-10T12:45:10.571Z,0.90
2018-08-10T12:47:39.930Z,1.00
2018-08-10T12:50:09.866Z,0.97
2018-08-10T12:52:39.455Z,0.90
2018-08-10T12:55:08.935Z,0.90
2018-08-10T12:57:38.263Z,0.90
2018-08-10T13:00:09.959Z,1.00
2018-08-10T13:02:39.376Z,3.93
2018-08-10T13:05:09.048Z,0.90
2018-08-10T13:07:38.381Z,0.90
2018-08-10T13:10:09.493Z,1.10
2018-08-10T13:12:38.842Z,0.93
2018-08-10T13:15:09.770Z,0.90
2018-08-10T13:17:39.122Z,0.97
2018-08-10T13:20:10.598Z,1.00
2018-08-10T13:22:40.019Z,1.00
2018-08-10T13:25:10.310Z,0.93
2018-08-10T13:27:39.718Z,0.90
2018-08-10T13:30:10.618Z,0.80
2018-08-10T13:32:39.943Z,0.90
2018-08-10T13:35:09.308Z,0.90
2018-08-10T13:37:38.672Z,1.10
2018-08-10T13:40:07.980Z,0.90
2018-08-10T13:42:37.345Z,0.83
2018-08-10T13:45:08.710Z,0.87
2018-08-10T13:47:38.091Z,1.00
2018-08-10T13:50:09.223Z,0.90
2018-08-10T13:52:38.571Z,0.80
2018-08-10T13:55:09.148Z,1.00
2018-08-10T13:57:38.527Z,0.93
2018-08-10T14:00:07.934Z,0.90
2018-08-10T14:02:37.283Z,0.80
2018-08-10T14:05:06.651Z,0.93
2018-08-10T14:07:36.006Z,0.90
2018-08-10T14:10:05.823Z,0.90
2018-08-10T14:12:35.186Z,0.80
2018-08-10T14:15:04.962Z,0.90
2018-08-10T14:17:34.330Z,1.00
2018-08-10T14:20:03.770Z,1.00
2018-08-10T14:22:33.266Z,0.80
2018-08-10T14:25:02.657Z,1.07
2018-08-10T14:27:32.016Z,1.00
2018-08-10T14:30:01.340Z,1.13
2018-08-10T14:32:30.731Z,1.10
2018-08-10T14:35:00.085Z,1.00
2018-08-10T14:38:17.341Z,0.90
2018-08-10T14:40:46.684Z,1.10
2018-08-10T14:43:16.046Z,1.00
2018-08-10T14:45:45.437Z,1.00
2018-08-10T14:48:14.779Z,0.90
2018-08-10T14:50:44.084Z,1.00
2018-08-10T14:53:13.432Z,0.80
2018-08-10T14:55:42.818Z,0.90
2018-08-10T14:58:12.148Z,1.10
2018-08-10T15:00:41.506Z,0.90
2018-08-10T15:03:10.842Z,0.90
2018-08-10T15:05:40.180Z,0.90
2018-08-10T15:08:09.558Z,1.10
2018-08-10T15:10:38.875Z,0.90
2018-08-10T15:13:08.766Z,0.90
2018-08-10T15:15:38.054Z,0.90
2018-08-10T15:18:07.522Z,1.10
2018-08-10T15:20:36.829Z,1.27
2018-08-10T15:23:06.192Z,1.00
2018-08-10T15:25:35.547Z,0.90
2018-08-10T15:28:04.842Z,1.00
2018-08-10T15:30:34.223Z,1.00
2018-08-10T15:33:03.558Z,1.00
2018-08-10T15:35:32.911Z,0.97
2018-08-10T15:38:02.215Z,0.90
2018-08-10T15:40:31.570Z,0.90
2018-08-10T15:43:00.887Z,1.10
2018-08-10T15:45:30.218Z,0.90
2018-08-10T15:47:59.542Z,1.00
2018-08-10T15:50:28.893Z,1.10
2018-08-10T15:52:58.974Z,1.00
2018-08-10T15:55:28.319Z,1.00
2018-08-10T15:57:57.615Z,0.90
2018-08-10T16:00:27.007Z,0.90
2018-08-10T16:02:56.306Z,1.30
2018-08-10T16:05:25.617Z,1.03
2018-08-10T16:07:54.926Z,0.90
2018-08-10T16:10:24.367Z,0.93
2018-08-10T16:12:53.709Z,0.90
2018-08-10T16:15:23.100Z,1.10
2018-08-10T16:17:52.427Z,0.90
2018-08-10T16:20:22.611Z,0.87
2018-08-10T16:22:52.098Z,0.90
2018-08-10T16:25:21.418Z,1.10
2018-08-10T16:27:50.747Z,1.03
2018-08-10T16:30:20.114Z,1.17
2018-08-10T16:32:49.468Z,1.00
2018-08-10T16:35:18.919Z,0.80
2018-08-10T16:37:48.382Z,0.90
2018-08-10T16:40:18.363Z,1.20
2018-08-10T16:42:47.727Z,0.90
2018-08-10T16:45:17.024Z,0.90
2018-08-10T16:47:46.505Z,0.80
2018-08-10T16:50:17.445Z,0.90
2018-08-10T16:52:47.022Z,1.07
2018-08-10T16:55:17.818Z,1.00
2018-08-10T16:57:47.876Z,0.90
2018-08-10T17:00:20.642Z,1.00
2018-08-10T17:02:50.003Z,1.00
2018-08-10T17:05:19.421Z,1.00
2018-08-10T17:07:48.726Z,1.20
2018-08-10T17:10:18.076Z,1.00
2018-08-10T17:12:47.549Z,0.90
2018-08-10T17:15:19.176Z,1.03
2018-08-10T17:17:49.118Z,1.40
2018-08-10T17:20:18.905Z,1.10
2018-08-10T17:22:48.295Z,1.03
2018-08-10T17:25:19.951Z,1.10
2018-08-10T17:27:49.351Z,1.03
2018-08-10T17:30:19.780Z,1.27
2018-08-10T17:32:49.142Z,1.60
2018-08-10T17:35:18.623Z,1.30
2018-08-10T17:37:48.175Z,1.23
2018-08-10T17:40:18.082Z,1.00
2018-08-10T17:42:47.455Z,1.10
2018-08-10T17:45:17.878Z,1.00
2018-08-10T17:47:47.221Z,0.90
2018-08-10T17:50:19.214Z,1.10
2018-08-10T17:52:50.849Z,1.00
2018-08-10T17:55:20.595Z,1.23
2018-08-10T17:57:49.918Z,1.10
2018-08-10T18:00:20.675Z,1.00
2018-08-10T18:02:50.933Z,1.00
2018-08-10T18:05:20.271Z,1.50
2018-08-10T18:07:49.568Z,1.20
2018-08-10T18:10:19.551Z,1.63
2018-08-10T18:12:48.875Z,1.10
2018-08-10T18:15:19.583Z,1.10
2018-08-10T18:17:49.272Z,0.97
2018-08-10T18:20:21.131Z,1.03
2018-08-10T18:22:51.635Z,1.10
2018-08-10T18:25:21.884Z,0.93
2018-08-10T18:27:51.254Z,1.00
2018-08-10T18:30:22.754Z,0.97
2018-08-10T18:32:52.093Z,1.10
2018-08-10T18:35:21.428Z,1.00
2018-08-10T18:37:51.428Z,1.00
2018-08-10T18:40:20.994Z,1.10
2018-08-10T18:42:50.727Z,0.90
2018-08-10T18:45:21.947Z,0.97
2018-08-10T18:47:52.086Z,0.90
2018-08-10T18:50:22.613Z,1.40
2018-08-10T18:52:52.290Z,1.70
2018-08-10T18:55:23.668Z,1.23
2018-08-10T18:57:53.962Z,1.00
2018-08-10T19:00:26.456Z,0.90
2018-08-10T19:02:56.629Z,1.03
2018-08-10T19:05:27.464Z,1.10
2018-08-10T19:07:57.419Z,1.03
2018-08-10T19:10:28.910Z,1.07
2018-08-10T19:13:00.378Z,1.00
2018-08-10T19:15:30.469Z,1.07
2018-08-10T19:18:00.682Z,1.10
2018-08-10T19:20:31.022Z,1.00
2018-08-10T19:23:01.094Z,1.00
2018-08-10T19:25:32.144Z,1.10
2018-08-10T19:28:02.520Z,1.20
2018-08-10T19:30:32.728Z,1.10
2018-08-10T19:33:02.965Z,1.17
2018-08-10T19:35:32.331Z,1.17
2018-08-10T19:38:02.196Z,0.90
2018-08-10T19:40:32.386Z,1.10
2018-08-10T19:43:02.319Z,1.10
2018-08-10T19:45:32.588Z,1.20
2018-08-10T19:48:03.027Z,1.00
2018-08-10T19:50:33.159Z,1.10
2018-08-10T19:53:03.152Z,1.30
2018-08-10T19:55:33.511Z,1.20
2018-08-10T19:58:03.380Z,1.30
2018-08-10T20:00:33.808Z,1.20
2018-08-10T20:03:04.083Z,1.03
2018-08-10T20:05:34.229Z,1.10
2018-08-10T20:08:03.643Z,1.27
2018-08-10T20:10:33.034Z,1.60
2018-08-10T20:13:02.392Z,1.30
2018-08-10T20:15:31.785Z,1.10
2018-08-10T20:18:01.108Z,1.17
2018-08-10T20:20:30.491Z,1.30
2018-08-10T20:22:59.790Z,1.30
2018-08-10T20:25:29.134Z,1.30
2018-08-10T20:27:58.921Z,1.20
2018-08-10T20:30:28.301Z,1.43
2018-08-10T20:32:57.624Z,1.40
2018-08-10T20:35:26.983Z,1.40
2018-08-10T20:37:56.303Z,1.40
2018-08-10T20:40:25.743Z,2.80
2018-08-10T20:42:55.145Z,6.03
2018-08-10T20:45:24.499Z,1.30
2018-08-10T20:47:53.856Z,1.40
2018-08-10T20:50:24.398Z,1.20
2018-08-10T20:52:53.761Z,1.40
2018-08-10T20:55:23.639Z,1.50
2018-08-10T20:57:52.958Z,1.60
2018-08-10T21:00:22.295Z,1.40
2018-08-10T21:02:51.631Z,1.50
2018-08-10T21:05:20.995Z,1.67
2018-08-10T21:07:50.335Z,1.47
2018-08-10T21:10:19.685Z,1.40
2018-08-10T21:12:49.032Z,1.40
2018-08-10T21:15:18.403Z,1.43
2018-08-10T21:17:47.833Z,1.50
2018-08-10T21:20:18.146Z,1.40
2018-08-10T21:22:47.471Z,1.80
2018-08-10T21:25:16.818Z,1.63
2018-08-10T21:27:46.206Z,1.73
2018-08-10T21:30:17.016Z,1.70
2018-08-10T21:32:46.447Z,4.17
2018-08-10T21:35:16.902Z,9.27
2018-08-10T21:37:46.329Z,1.80
2018-08-10T21:40:15.721Z,1.40
2018-08-10T21:42:45.082Z,1.50
2018-08-10T21:45:14.420Z,1.60
2018-08-10T21:47:43.784Z,1.90
2018-08-10T21:50:14.315Z,1.60
2018-08-10T21:52:44.465Z,1.80
2018-08-10T21:55:13.832Z,1.90
2018-08-10T21:57:43.170Z,1.80
2018-08-10T22:00:54.582Z,1.80
2018-08-10T22:03:24.391Z,1.70
2018-08-10T22:05:53.696Z,1.77
2018-08-10T22:08:23.920Z,1.80
2018-08-10T22:10:53.254Z,1.60
2018-08-10T22:13:27.965Z,1.87
2018-08-10T22:16:02.453Z,2.33
2018-08-10T22:19:36.476Z,2.30
2018-08-10T22:22:05.848Z,2.13
2018-08-10T22:24:35.151Z,2.00
2018-08-10T22:27:04.508Z,2.10
2018-08-10T22:29:33.814Z,2.07
2018-08-10T22:32:03.166Z,2.07
2018-08-10T22:34:32.465Z,5.70
2018-08-10T22:37:01.775Z,2.50
2018-08-10T22:39:31.066Z,1.97
2018-08-10T22:42:00.698Z,2.27
2018-08-10T22:44:30.024Z,2.10
2018-08-10T22:46:59.339Z,2.50
2018-08-10T22:49:28.740Z,2.43
2018-08-10T22:51:58.089Z,2.03
2018-08-10T22:54:27.460Z,2.20
2018-08-10T22:56:56.845Z,2.80
2018-08-10T22:59:26.218Z,2.50
2018-08-10T23:01:55.559Z,2.70
2018-08-10T23:04:24.951Z,2.80
2018-08-10T23:06:54.290Z,2.93
2018-08-10T23:09:24.868Z,2.73
2018-08-10T23:11:57.616Z,2.67
2018-08-10T23:14:28.873Z,2.60
2018-08-10T23:16:58.350Z,2.80
2018-08-10T23:19:27.687Z,2.90
2018-08-10T23:21:56.987Z,2.60
2018-08-10T23:24:26.352Z,3.30
2018-08-10T23:26:55.651Z,2.90
2018-08-10T23:29:24.966Z,3.00
2018-08-10T23:31:54.286Z,3.10
2018-08-10T23:34:23.581Z,3.10
2018-08-10T23:36:52.946Z,2.70
2018-08-10T23:39:22.228Z,3.17
2018-08-10T23:41:51.629Z,3.30
2018-08-10T23:44:20.923Z,2.93
2018-08-10T23:46:50.254Z,3.10
2018-08-10T23:49:19.626Z,3.10
2018-08-10T23:51:49.006Z,3.10
2018-08-10T23:54:18.746Z,3.80
2018-08-10T23:56:48.126Z,3.70
2018-08-10T23:59:17.474Z,3.33
